CPD2 weather

Ethel Airport
Ethel, Ontario, Canada

Public forecast

Using degrees Celsius for public forecast. Weather courtesy of forecast.io.

Closest aviation weather report (METAR) to Ethel Airport

Closest report is Waterloo Airport, 38.7 nm (71.6 km) ESE. Retrieved 2019/10/14 17:00 UTC (57 minutes ago):

CYKF 141700Z AUTO 26013G21KT 230V310 9SM FEW045 BKN060 10/M01 A2997 RMK SLP155

Closest aviation forecast (TAF) to Ethel Airport

Closest forecast is Waterloo Airport, 38.7 nm (71.6 km) ESE. Retrieved 2019/10/14 14:42 UTC (3 hours ago):

TAF CYKF 141338Z 1414/1502 26010KT P6SM FEW030 OVC060 FM141600 27012G22KT P6SM SCT040 TEMPO 1416/1502 BKN040 BECMG 1422/1424 25010KT RMK FCST BASED ON AUTO OBS NXT FCST BY 142000Z